sensor_id;sensor_type;location;lat;lon;timestamp;temperature;humidity
3190;DHT22;1606;51.946;10.558;2023-07-31T00:01:19;20.60;99.90
3190;DHT22;1606;51.946;10.558;2023-07-31T00:03:52;20.50;99.90
3190;DHT22;1606;51.946;10.558;2023-07-31T00:06:21;20.70;99.90
3190;DHT22;1606;51.946;10.558;2023-07-31T00:09:00;20.70;99.90
3190;DHT22;1606;51.946;10.558;2023-07-31T00:11:46;20.70;99.90
3190;DHT22;1606;51.946;10.558;2023-07-31T00:14:24;20.70;99.90
3190;DHT22;1606;51.946;10.558;2023-07-31T00:17:03;20.80;99.90
3190;DHT22;1606;51.946;10.558;2023-07-31T00:19:33;20.80;99.90
3190;DHT22;1606;51.946;10.558;2023-07-31T00:22:11;20.90;99.90
3190;DHT22;1606;51.946;10.558;2023-07-31T00:24:46;20.90;99.90
3190;DHT22;1606;51.946;10.558;2023-07-31T00:27:30;20.80;99.90
3190;DHT22;1606;51.946;10.558;2023-07-31T00:30:02;20.80;99.90
3190;DHT22;1606;51.946;10.558;2023-07-31T00:32:30;20.90;99.90
3190;DHT22;1606;51.946;10.558;2023-07-31T00:35:06;21.00;99.90
3190;DHT22;1606;51.946;10.558;2023-07-31T00:37:37;20.90;99.90
3190;DHT22;1606;51.946;10.558;2023-07-31T00:40:10;20.90;99.90
3190;DHT22;1606;51.946;10.558;2023-07-31T00:42:46;21.00;99.90
3190;DHT22;1606;51.946;10.558;2023-07-31T00:45:20;21.00;99.90
3190;DHT22;1606;51.946;10.558;2023-07-31T00:47:57;21.00;99.90
3190;DHT22;1606;51.946;10.558;2023-07-31T00:50:48;20.90;99.90
3190;DHT22;1606;51.946;10.558;2023-07-31T00:53:46;20.40;99.90
3190;DHT22;1606;51.946;10.558;2023-07-31T00:56:41;20.40;99.90
3190;DHT22;1606;51.946;10.558;2023-07-31T00:59:12;20.40;99.90
3190;DHT22;1606;51.946;10.558;2023-07-31T01:01:49;20.30;99.90
3190;DHT22;1606;51.946;10.558;2023-07-31T01:04:21;20.20;99.90
3190;DHT22;1606;51.946;10.558;2023-07-31T01:07:03;20.00;99.90
3190;DHT22;1606;51.946;10.558;2023-07-31T01:09:44;20.00;99.90
3190;DHT22;1606;51.946;10.558;2023-07-31T01:12:16;19.80;99.90
3190;DHT22;1606;51.946;10.558;2023-07-31T01:15:05;19.70;99.90
3190;DHT22;1606;51.946;10.558;2023-07-31T01:18:06;19.60;99.90
3190;DHT22;1606;51.946;10.558;2023-07-31T01:21:28;19.50;99.90
3190;DHT22;1606;51.946;10.558;2023-07-31T01:24:20;19.50;99.90
3190;DHT22;1606;51.946;10.558;2023-07-31T01:26:56;19.50;99.90
3190;DHT22;1606;51.946;10.558;2023-07-31T01:29:36;19.40;99.90
3190;DHT22;1606;51.946;10.558;2023-07-31T01:32:09;19.50;99.90
3190;DHT22;1606;51.946;10.558;2023-07-31T01:34:42;19.60;99.90
3190;DHT22;1606;51.946;10.558;2023-07-31T01:37:16;19.80;99.90
3190;DHT22;1606;51.946;10.558;2023-07-31T01:39:48;19.90;99.90
3190;DHT22;1606;51.946;10.558;2023-07-31T01:42:20;19.90;99.90
3190;DHT22;1606;51.946;10.558;2023-07-31T01:45:00;19.80;99.90
3190;DHT22;1606;51.946;10.558;2023-07-31T01:47:29;19.80;99.90
3190;DHT22;1606;51.946;10.558;2023-07-31T01:50:05;19.80;99.90
3190;DHT22;1606;51.946;10.558;2023-07-31T01:52:41;19.60;99.90
3190;DHT22;1606;51.946;10.558;2023-07-31T01:55:10;19.50;99.90
3190;DHT22;1606;51.946;10.558;2023-07-31T01:57:40;19.50;99.90
3190;DHT22;1606;51.946;10.558;2023-07-31T02:00:15;19.40;99.90
3190;DHT22;1606;51.946;10.558;2023-07-31T02:02:46;19.40;99.90
3190;DHT22;1606;51.946;10.558;2023-07-31T02:05:24;19.60;99.90
3190;DHT22;1606;51.946;10.558;2023-07-31T02:07:58;19.60;99.90
3190;DHT22;1606;51.946;10.558;2023-07-31T02:10:32;19.70;99.90
3190;DHT22;1606;51.946;10.558;2023-07-31T02:13:11;19.60;99.90
3190;DHT22;1606;51.946;10.558;2023-07-31T02:15:45;19.70;99.90
3190;DHT22;1606;51.946;10.558;2023-07-31T02:18:21;19.70;99.90
3190;DHT22;1606;51.946;10.558;2023-07-31T02:21:00;19.70;99.90
3190;DHT22;1606;51.946;10.558;2023-07-31T02:23:34;19.70;99.90
3190;DHT22;1606;51.946;10.558;2023-07-31T02:26:15;19.60;99.90
3190;DHT22;1606;51.946;10.558;2023-07-31T02:28:51;19.60;99.90
3190;DHT22;1606;51.946;10.558;2023-07-31T02:31:27;19.50;99.90
3190;DHT22;1606;51.946;10.558;2023-07-31T02:34:02;19.60;99.90
3190;DHT22;1606;51.946;10.558;2023-07-31T02:36:47;19.60;99.90
3190;DHT22;1606;51.946;10.558;2023-07-31T02:39:19;19.60;99.90
3190;DHT22;1606;51.946;10.558;2023-07-31T02:41:57;19.60;99.90
3190;DHT22;1606;51.946;10.558;2023-07-31T02:44:36;19.70;99.90
3190;DHT22;1606;51.946;10.558;2023-07-31T02:47:10;19.70;99.90
3190;DHT22;1606;51.946;10.558;2023-07-31T02:49:48;19.70;99.90
3190;DHT22;1606;51.946;10.558;2023-07-31T02:52:16;19.70;99.90
3190;DHT22;1606;51.946;10.558;2023-07-31T02:54:47;19.90;99.90
3190;DHT22;1606;51.946;10.558;2023-07-31T02:57:18;19.80;99.90
3190;DHT22;1606;51.946;10.558;2023-07-31T02:59:50;19.80;99.90
3190;DHT22;1606;51.946;10.558;2023-07-31T03:02:18;19.90;99.90
3190;DHT22;1606;51.946;10.558;2023-07-31T03:04:54;20.00;99.90
3190;DHT22;1606;51.946;10.558;2023-07-31T03:07:25;20.10;99.90
3190;DHT22;1606;51.946;10.558;2023-07-31T03:10:03;20.10;99.90
3190;DHT22;1606;51.946;10.558;2023-07-31T03:12:37;20.10;99.90
3190;DHT22;1606;51.946;10.558;2023-07-31T03:15:12;20.20;99.90
3190;DHT22;1606;51.946;10.558;2023-07-31T03:17:51;20.00;99.90
3190;DHT22;1606;51.946;10.558;2023-07-31T03:20:21;19.70;99.90
3190;DHT22;1606;51.946;10.558;2023-07-31T03:22:52;19.70;99.90
3190;DHT22;1606;51.946;10.558;2023-07-31T03:25:26;19.60;99.90
3190;DHT22;1606;51.946;10.558;2023-07-31T03:27:59;19.70;99.90
3190;DHT22;1606;51.946;10.558;2023-07-31T03:30:32;19.90;99.90
3190;DHT22;1606;51.946;10.558;2023-07-31T03:33:05;19.90;99.90
3190;DHT22;1606;51.946;10.558;2023-07-31T03:35:34;20.00;99.90
3190;DHT22;1606;51.946;10.558;2023-07-31T03:38:07;20.00;99.90
3190;DHT22;1606;51.946;10.558;2023-07-31T03:40:42;20.00;99.90
3190;DHT22;1606;51.946;10.558;2023-07-31T03:43:12;20.00;99.90
3190;DHT22;1606;51.946;10.558;2023-07-31T03:45:42;19.90;99.90
3190;DHT22;1606;51.946;10.558;2023-07-31T03:48:11;19.90;99.90
3190;DHT22;1606;51.946;10.558;2023-07-31T03:50:39;19.50;99.90
3190;DHT22;1606;51.946;10.558;2023-07-31T03:53:15;19.40;99.90
3190;DHT22;1606;51.946;10.558;2023-07-31T03:55:45;19.40;99.90
3190;DHT22;1606;51.946;10.558;2023-07-31T03:58:18;19.40;99.90
3190;DHT22;1606;51.946;10.558;2023-07-31T04:00:57;19.30;99.90
3190;DHT22;1606;51.946;10.558;2023-07-31T04:03:35;19.40;99.90
3190;DHT22;1606;51.946;10.558;2023-07-31T04:06:04;19.40;99.90
3190;DHT22;1606;51.946;10.558;2023-07-31T04:08:34;19.40;99.90
3190;DHT22;1606;51.946;10.558;2023-07-31T04:11:02;19.40;99.90
3190;DHT22;1606;51.946;10.558;2023-07-31T04:13:36;19.30;99.90
3190;DHT22;1606;51.946;10.558;2023-07-31T04:16:19;19.10;99.90
3190;DHT22;1606;51.946;10.558;2023-07-31T04:18:53;19.10;99.90
3190;DHT22;1606;51.946;10.558;2023-07-31T04:21:27;19.00;99.90
3190;DHT22;1606;51.946;10.558;2023-07-31T04:23:59;19.20;99.90
3190;DHT22;1606;51.946;10.558;2023-07-31T04:26:47;19.20;99.90
3190;DHT22;1606;51.946;10.558;2023-07-31T04:29:21;19.10;99.90
3190;DHT22;1606;51.946;10.558;2023-07-31T04:31:57;19.10;99.90
3190;DHT22;1606;51.946;10.558;2023-07-31T04:34:34;18.90;99.90
3190;DHT22;1606;51.946;10.558;2023-07-31T04:37:06;18.80;99.90
3190;DHT22;1606;51.946;10.558;2023-07-31T04:39:37;18.70;99.90
3190;DHT22;1606;51.946;10.558;2023-07-31T04:42:09;18.70;99.90
3190;DHT22;1606;51.946;10.558;2023-07-31T04:44:45;18.80;99.90
3190;DHT22;1606;51.946;10.558;2023-07-31T04:47:24;19.00;99.90
3190;DHT22;1606;51.946;10.558;2023-07-31T04:49:56;19.10;99.90
3190;DHT22;1606;51.946;10.558;2023-07-31T04:52:28;19.00;99.90
3190;DHT22;1606;51.946;10.558;2023-07-31T04:55:02;19.10;99.90
3190;DHT22;1606;51.946;10.558;2023-07-31T04:57:42;19.00;99.90
3190;DHT22;1606;51.946;10.558;2023-07-31T05:00:22;19.00;99.90
3190;DHT22;1606;51.946;10.558;2023-07-31T05:03:00;19.20;99.90
3190;DHT22;1606;51.946;10.558;2023-07-31T05:05:33;19.10;99.90
3190;DHT22;1606;51.946;10.558;2023-07-31T05:08:11;19.10;99.90
3190;DHT22;1606;51.946;10.558;2023-07-31T05:10:41;19.30;99.90
3190;DHT22;1606;51.946;10.558;2023-07-31T05:13:13;19.40;99.90
3190;DHT22;1606;51.946;10.558;2023-07-31T05:15:50;19.40;99.90
3190;DHT22;1606;51.946;10.558;2023-07-31T05:18:33;19.20;99.90
3190;DHT22;1606;51.946;10.558;2023-07-31T05:21:02;19.10;99.90
3190;DHT22;1606;51.946;10.558;2023-07-31T05:26:27;19.10;99.90
3190;DHT22;1606;51.946;10.558;2023-07-31T05:28:57;19.10;99.90
3190;DHT22;1606;51.946;10.558;2023-07-31T05:31:33;19.10;99.90
3190;DHT22;1606;51.946;10.558;2023-07-31T05:34:07;19.00;99.90
3190;DHT22;1606;51.946;10.558;2023-07-31T05:36:42;19.20;99.90
3190;DHT22;1606;51.946;10.558;2023-07-31T05:39:15;19.20;99.90
3190;DHT22;1606;51.946;10.558;2023-07-31T05:41:50;19.10;99.90
3190;DHT22;1606;51.946;10.558;2023-07-31T05:44:23;19.20;99.90
3190;DHT22;1606;51.946;10.558;2023-07-31T05:47:00;19.20;99.90
3190;DHT22;1606;51.946;10.558;2023-07-31T05:49:33;19.20;99.90
3190;DHT22;1606;51.946;10.558;2023-07-31T05:52:09;19.10;99.90
3190;DHT22;1606;51.946;10.558;2023-07-31T05:54:41;19.20;99.90
3190;DHT22;1606;51.946;10.558;2023-07-31T05:57:13;19.30;99.90
3190;DHT22;1606;51.946;10.558;2023-07-31T05:59:44;19.20;99.90
3190;DHT22;1606;51.946;10.558;2023-07-31T06:02:26;19.30;99.90
3190;DHT22;1606;51.946;10.558;2023-07-31T06:05:09;19.20;99.90
3190;DHT22;1606;51.946;10.558;2023-07-31T06:07:51;19.30;99.90
3190;DHT22;1606;51.946;10.558;2023-07-31T06:10:44;19.50;99.90
3190;DHT22;1606;51.946;10.558;2023-07-31T06:13:18;19.50;99.90
3190;DHT22;1606;51.946;10.558;2023-07-31T06:15:52;19.40;99.90
3190;DHT22;1606;51.946;10.558;2023-07-31T06:18:43;19.60;99.90
3190;DHT22;1606;51.946;10.558;2023-07-31T06:21:25;19.40;99.90
3190;DHT22;1606;51.946;10.558;2023-07-31T06:24:27;19.30;99.90
3190;DHT22;1606;51.946;10.558;2023-07-31T06:27:11;19.50;99.90
3190;DHT22;1606;51.946;10.558;2023-07-31T06:29:50;19.50;99.90
3190;DHT22;1606;51.946;10.558;2023-07-31T06:33:01;19.70;99.90
3190;DHT22;1606;51.946;10.558;2023-07-31T06:35:50;19.80;99.90
3190;DHT22;1606;51.946;10.558;2023-07-31T06:38:33;19.60;99.90
3190;DHT22;1606;51.946;10.558;2023-07-31T06:41:07;19.70;99.90
3190;DHT22;1606;51.946;10.558;2023-07-31T06:43:43;19.60;99.90
3190;DHT22;1606;51.946;10.558;2023-07-31T06:46:13;19.60;99.90
3190;DHT22;1606;51.946;10.558;2023-07-31T06:48:51;19.50;99.90
3190;DHT22;1606;51.946;10.558;2023-07-31T06:51:29;19.60;99.90
3190;DHT22;1606;51.946;10.558;2023-07-31T06:54:20;19.60;99.90
3190;DHT22;1606;51.946;10.558;2023-07-31T06:56:55;19.90;99.90
3190;DHT22;1606;51.946;10.558;2023-07-31T06:59:29;20.00;99.90
3190;DHT22;1606;51.946;10.558;2023-07-31T07:02:03;19.60;99.90
3190;DHT22;1606;51.946;10.558;2023-07-31T07:04:36;19.70;99.90
3190;DHT22;1606;51.946;10.558;2023-07-31T07:07:08;19.70;99.90
3190;DHT22;1606;51.946;10.558;2023-07-31T07:09:38;19.90;99.90
3190;DHT22;1606;51.946;10.558;2023-07-31T07:12:19;20.10;99.90
3190;DHT22;1606;51.946;10.558;2023-07-31T07:15:18;20.10;99.90
3190;DHT22;1606;51.946;10.558;2023-07-31T07:18:42;19.90;99.90
3190;DHT22;1606;51.946;10.558;2023-07-31T07:21:40;20.20;99.90
3190;DHT22;1606;51.946;10.558;2023-07-31T07:24:28;20.10;99.90
3190;DHT22;1606;51.946;10.558;2023-07-31T07:27:01;20.20;99.90
3190;DHT22;1606;51.946;10.558;2023-07-31T07:29:34;20.00;99.90
3190;DHT22;1606;51.946;10.558;2023-07-31T07:32:04;19.90;99.90
3190;DHT22;1606;51.946;10.558;2023-07-31T07:34:42;19.90;99.90
3190;DHT22;1606;51.946;10.558;2023-07-31T07:37:11;19.90;99.90
3190;DHT22;1606;51.946;10.558;2023-07-31T07:39:54;20.10;99.90
3190;DHT22;1606;51.946;10.558;2023-07-31T07:42:43;20.10;99.90
3190;DHT22;1606;51.946;10.558;2023-07-31T07:45:26;20.30;99.90
3190;DHT22;1606;51.946;10.558;2023-07-31T07:48:10;20.00;99.90
3190;DHT22;1606;51.946;10.558;2023-07-31T07:50:41;20.10;99.90
3190;DHT22;1606;51.946;10.558;2023-07-31T07:53:12;20.10;99.90
3190;DHT22;1606;51.946;10.558;2023-07-31T07:55:57;20.20;99.90
3190;DHT22;1606;51.946;10.558;2023-07-31T07:58:30;19.90;99.90
3190;DHT22;1606;51.946;10.558;2023-07-31T08:00:59;20.00;99.90
3190;DHT22;1606;51.946;10.558;2023-07-31T08:03:36;20.20;99.90
3190;DHT22;1606;51.946;10.558;2023-07-31T08:06:05;20.40;99.90
3190;DHT22;1606;51.946;10.558;2023-07-31T08:08:40;20.50;99.90
3190;DHT22;1606;51.946;10.558;2023-07-31T08:11:12;20.50;99.90
3190;DHT22;1606;51.946;10.558;2023-07-31T08:13:44;20.80;99.90
3190;DHT22;1606;51.946;10.558;2023-07-31T08:16:23;20.80;99.90
3190;DHT22;1606;51.946;10.558;2023-07-31T08:18:55;20.80;99.90
3190;DHT22;1606;51.946;10.558;2023-07-31T08:21:37;20.70;99.90
3190;DHT22;1606;51.946;10.558;2023-07-31T08:24:19;20.70;99.90
3190;DHT22;1606;51.946;10.558;2023-07-31T08:26:50;20.70;99.90
3190;DHT22;1606;51.946;10.558;2023-07-31T08:29:23;20.70;99.90
3190;DHT22;1606;51.946;10.558;2023-07-31T08:31:57;20.80;99.90
3190;DHT22;1606;51.946;10.558;2023-07-31T08:34:34;20.70;99.90
3190;DHT22;1606;51.946;10.558;2023-07-31T08:37:12;20.40;99.90
3190;DHT22;1606;51.946;10.558;2023-07-31T08:40:00;20.20;99.90
3190;DHT22;1606;51.946;10.558;2023-07-31T08:42:41;20.30;99.90
3190;DHT22;1606;51.946;10.558;2023-07-31T08:45:17;20.40;99.90
3190;DHT22;1606;51.946;10.558;2023-07-31T08:47:48;20.60;99.90
3190;DHT22;1606;51.946;10.558;2023-07-31T08:50:22;20.70;99.90
3190;DHT22;1606;51.946;10.558;2023-07-31T08:53:07;21.00;99.90
3190;DHT22;1606;51.946;10.558;2023-07-31T08:55:42;21.30;99.90
3190;DHT22;1606;51.946;10.558;2023-07-31T08:58:16;21.20;99.90
3190;DHT22;1606;51.946;10.558;2023-07-31T09:00:53;21.10;99.90
3190;DHT22;1606;51.946;10.558;2023-07-31T09:03:33;21.30;99.90
3190;DHT22;1606;51.946;10.558;2023-07-31T09:06:10;21.40;99.90
3190;DHT22;1606;51.946;10.558;2023-07-31T09:08:44;21.30;99.90
3190;DHT22;1606;51.946;10.558;2023-07-31T09:11:19;21.60;99.90
3190;DHT22;1606;51.946;10.558;2023-07-31T09:13:55;21.80;99.90
3190;DHT22;1606;51.946;10.558;2023-07-31T09:16:30;21.50;99.90
3190;DHT22;1606;51.946;10.558;2023-07-31T09:19:10;21.50;99.90
3190;DHT22;1606;51.946;10.558;2023-07-31T09:21:52;21.50;99.90
3190;DHT22;1606;51.946;10.558;2023-07-31T09:24:36;21.90;99.90
3190;DHT22;1606;51.946;10.558;2023-07-31T09:27:09;22.10;99.90
3190;DHT22;1606;51.946;10.558;2023-07-31T09:29:45;22.20;99.90
3190;DHT22;1606;51.946;10.558;2023-07-31T09:32:35;22.50;99.90
3190;DHT22;1606;51.946;10.558;2023-07-31T09:35:14;22.00;99.90
3190;DHT22;1606;51.946;10.558;2023-07-31T09:37:53;21.80;99.90
3190;DHT22;1606;51.946;10.558;2023-07-31T09:40:27;21.80;99.90
3190;DHT22;1606;51.946;10.558;2023-07-31T09:42:57;21.80;99.90
3190;DHT22;1606;51.946;10.558;2023-07-31T09:45:28;21.50;99.90
3190;DHT22;1606;51.946;10.558;2023-07-31T09:48:10;21.50;99.90
3190;DHT22;1606;51.946;10.558;2023-07-31T09:50:50;21.30;99.90
3190;DHT22;1606;51.946;10.558;2023-07-31T09:53:31;21.10;99.90
3190;DHT22;1606;51.946;10.558;2023-07-31T09:56:07;21.20;99.90
3190;DHT22;1606;51.946;10.558;2023-07-31T09:58:46;21.20;99.90
3190;DHT22;1606;51.946;10.558;2023-07-31T10:01:28;21.20;99.90
3190;DHT22;1606;51.946;10.558;2023-07-31T10:03:58;21.20;99.90
3190;DHT22;1606;51.946;10.558;2023-07-31T10:06:34;21.10;99.90
3190;DHT22;1606;51.946;10.558;2023-07-31T10:09:10;21.20;99.90
3190;DHT22;1606;51.946;10.558;2023-07-31T10:11:45;21.40;99.90
3190;DHT22;1606;51.946;10.558;2023-07-31T10:14:29;21.60;99.90
3190;DHT22;1606;51.946;10.558;2023-07-31T10:17:03;21.60;99.90
3190;DHT22;1606;51.946;10.558;2023-07-31T10:19:39;21.60;99.90
3190;DHT22;1606;51.946;10.558;2023-07-31T10:22:09;21.70;99.90
3190;DHT22;1606;51.946;10.558;2023-07-31T10:24:40;21.80;99.90
3190;DHT22;1606;51.946;10.558;2023-07-31T10:27:13;21.80;99.90
3190;DHT22;1606;51.946;10.558;2023-07-31T10:29:58;21.80;99.90
3190;DHT22;1606;51.946;10.558;2023-07-31T10:32:41;22.10;99.90
3190;DHT22;1606;51.946;10.558;2023-07-31T10:35:22;22.40;99.90
3190;DHT22;1606;51.946;10.558;2023-07-31T10:37:52;22.80;99.90
3190;DHT22;1606;51.946;10.558;2023-07-31T10:40:29;22.80;99.90
3190;DHT22;1606;51.946;10.558;2023-07-31T10:42:59;23.00;99.90
3190;DHT22;1606;51.946;10.558;2023-07-31T10:45:33;23.00;99.90
3190;DHT22;1606;51.946;10.558;2023-07-31T10:48:05;22.50;99.90
3190;DHT22;1606;51.946;10.558;2023-07-31T10:50:48;22.50;99.90
3190;DHT22;1606;51.946;10.558;2023-07-31T10:53:29;22.60;99.90
3190;DHT22;1606;51.946;10.558;2023-07-31T10:56:05;22.60;99.90
3190;DHT22;1606;51.946;10.558;2023-07-31T10:58:37;22.80;99.90
3190;DHT22;1606;51.946;10.558;2023-07-31T11:01:06;22.90;99.90
3190;DHT22;1606;51.946;10.558;2023-07-31T11:03:42;23.10;99.90
3190;DHT22;1606;51.946;10.558;2023-07-31T11:06:17;23.20;99.90
3190;DHT22;1606;51.946;10.558;2023-07-31T11:08:47;23.20;99.90
3190;DHT22;1606;51.946;10.558;2023-07-31T11:11:24;23.20;99.90
3190;DHT22;1606;51.946;10.558;2023-07-31T11:13:54;23.10;99.90
3190;DHT22;1606;51.946;10.558;2023-07-31T11:16:24;23.20;99.90
3190;DHT22;1606;51.946;10.558;2023-07-31T11:18:59;23.40;99.90
3190;DHT22;1606;51.946;10.558;2023-07-31T11:21:29;23.30;99.90
3190;DHT22;1606;51.946;10.558;2023-07-31T11:24:05;23.40;99.90
3190;DHT22;1606;51.946;10.558;2023-07-31T11:26:37;23.40;99.90
3190;DHT22;1606;51.946;10.558;2023-07-31T11:29:13;23.30;99.90
3190;DHT22;1606;51.946;10.558;2023-07-31T11:31:43;23.40;99.90
3190;DHT22;1606;51.946;10.558;2023-07-31T11:34:13;23.10;99.90
3190;DHT22;1606;51.946;10.558;2023-07-31T11:37:09;23.30;99.90
3190;DHT22;1606;51.946;10.558;2023-07-31T11:40:13;23.20;99.90
3190;DHT22;1606;51.946;10.558;2023-07-31T11:42:47;23.20;99.90
3190;DHT22;1606;51.946;10.558;2023-07-31T11:45:19;23.40;99.90
3190;DHT22;1606;51.946;10.558;2023-07-31T11:47:56;23.50;99.90
3190;DHT22;1606;51.946;10.558;2023-07-31T11:50:33;23.30;99.90
3190;DHT22;1606;51.946;10.558;2023-07-31T11:53:08;23.60;99.90
3190;DHT22;1606;51.946;10.558;2023-07-31T11:55:40;23.60;99.90
3190;DHT22;1606;51.946;10.558;2023-07-31T11:58:10;23.40;99.90
3190;DHT22;1606;51.946;10.558;2023-07-31T12:00:39;23.50;99.90
3190;DHT22;1606;51.946;10.558;2023-07-31T12:03:11;23.90;99.90
3190;DHT22;1606;51.946;10.558;2023-07-31T12:05:47;24.10;99.90
3190;DHT22;1606;51.946;10.558;2023-07-31T12:08:23;23.80;99.90
3190;DHT22;1606;51.946;10.558;2023-07-31T12:10:53;23.70;99.90
3190;DHT22;1606;51.946;10.558;2023-07-31T12:13:30;23.70;99.90
3190;DHT22;1606;51.946;10.558;2023-07-31T12:16:03;23.70;99.90
3190;DHT22;1606;51.946;10.558;2023-07-31T12:18:36;23.80;99.90
3190;DHT22;1606;51.946;10.558;2023-07-31T12:21:06;24.10;99.90
3190;DHT22;1606;51.946;10.558;2023-07-31T12:23:46;24.00;99.90
3190;DHT22;1606;51.946;10.558;2023-07-31T12:26:16;23.50;99.90
3190;DHT22;1606;51.946;10.558;2023-07-31T12:28:50;23.40;99.90
3190;DHT22;1606;51.946;10.558;2023-07-31T12:31:28;23.50;99.90
3190;DHT22;1606;51.946;10.558;2023-07-31T12:34:01;23.60;99.90
3190;DHT22;1606;51.946;10.558;2023-07-31T12:36:34;23.60;99.90
3190;DHT22;1606;51.946;10.558;2023-07-31T12:39:05;23.70;99.90
3190;DHT22;1606;51.946;10.558;2023-07-31T12:41:35;23.70;99.90
3190;DHT22;1606;51.946;10.558;2023-07-31T12:44:06;23.90;99.90
3190;DHT22;1606;51.946;10.558;2023-07-31T12:46:35;24.10;99.90
3190;DHT22;1606;51.946;10.558;2023-07-31T12:49:05;24.00;99.90
3190;DHT22;1606;51.946;10.558;2023-07-31T12:51:45;23.90;99.90
3190;DHT22;1606;51.946;10.558;2023-07-31T12:54:20;23.90;99.90
3190;DHT22;1606;51.946;10.558;2023-07-31T12:56:55;23.90;99.90
3190;DHT22;1606;51.946;10.558;2023-07-31T12:59:28;23.70;99.90
3190;DHT22;1606;51.946;10.558;2023-07-31T13:02:05;23.70;99.90
3190;DHT22;1606;51.946;10.558;2023-07-31T13:04:35;23.70;99.90
3190;DHT22;1606;51.946;10.558;2023-07-31T13:07:05;23.60;99.90
3190;DHT22;1606;51.946;10.558;2023-07-31T13:09:39;23.50;99.90
3190;DHT22;1606;51.946;10.558;2023-07-31T13:12:08;23.80;99.90
3190;DHT22;1606;51.946;10.558;2023-07-31T13:14:38;23.90;99.90
3190;DHT22;1606;51.946;10.558;2023-07-31T13:17:12;24.10;99.90
3190;DHT22;1606;51.946;10.558;2023-07-31T13:19:43;24.00;99.90
3190;DHT22;1606;51.946;10.558;2023-07-31T13:22:15;23.90;99.90
3190;DHT22;1606;51.946;10.558;2023-07-31T13:24:46;23.80;99.90
3190;DHT22;1606;51.946;10.558;2023-07-31T13:27:18;23.80;99.90
3190;DHT22;1606;51.946;10.558;2023-07-31T13:29:56;23.90;99.90
3190;DHT22;1606;51.946;10.558;2023-07-31T13:32:28;23.80;99.90
3190;DHT22;1606;51.946;10.558;2023-07-31T13:34:59;24.00;99.90
3190;DHT22;1606;51.946;10.558;2023-07-31T13:37:38;24.10;99.90
3190;DHT22;1606;51.946;10.558;2023-07-31T13:40:14;24.00;99.90
3190;DHT22;1606;51.946;10.558;2023-07-31T13:42:45;24.00;99.90
3190;DHT22;1606;51.946;10.558;2023-07-31T13:45:20;24.10;99.90
3190;DHT22;1606;51.946;10.558;2023-07-31T13:47:52;23.90;99.90
3190;DHT22;1606;51.946;10.558;2023-07-31T13:50:24;23.80;99.90
3190;DHT22;1606;51.946;10.558;2023-07-31T13:53:02;23.80;99.90
3190;DHT22;1606;51.946;10.558;2023-07-31T13:55:35;23.80;99.90
3190;DHT22;1606;51.946;10.558;2023-07-31T13:58:28;23.80;99.90
3190;DHT22;1606;51.946;10.558;2023-07-31T14:01:22;23.80;99.90
3190;DHT22;1606;51.946;10.558;2023-07-31T14:03:58;23.80;99.90
3190;DHT22;1606;51.946;10.558;2023-07-31T14:06:28;23.80;99.90
3190;DHT22;1606;51.946;10.558;2023-07-31T14:08:59;24.10;99.90
3190;DHT22;1606;51.946;10.558;2023-07-31T14:11:32;24.00;99.90
3190;DHT22;1606;51.946;10.558;2023-07-31T14:14:11;23.70;99.90
3190;DHT22;1606;51.946;10.558;2023-07-31T14:16:45;23.80;99.90
3190;DHT22;1606;51.946;10.558;2023-07-31T14:19:22;24.00;99.90
3190;DHT22;1606;51.946;10.558;2023-07-31T14:22:03;24.10;99.90
3190;DHT22;1606;51.946;10.558;2023-07-31T14:24:37;24.10;99.90
3190;DHT22;1606;51.946;10.558;2023-07-31T14:27:08;24.10;99.90
3190;DHT22;1606;51.946;10.558;2023-07-31T14:29:44;23.80;99.90
3190;DHT22;1606;51.946;10.558;2023-07-31T14:32:13;23.60;99.90
3190;DHT22;1606;51.946;10.558;2023-07-31T14:34:45;23.30;99.90
3190;DHT22;1606;51.946;10.558;2023-07-31T14:37:21;23.40;99.90
3190;DHT22;1606;51.946;10.558;2023-07-31T14:39:50;23.40;99.90
3190;DHT22;1606;51.946;10.558;2023-07-31T14:42:25;23.20;99.90
3190;DHT22;1606;51.946;10.558;2023-07-31T14:45:03;22.90;99.90
3190;DHT22;1606;51.946;10.558;2023-07-31T14:47:39;22.90;99.90
3190;DHT22;1606;51.946;10.558;2023-07-31T14:50:11;22.90;99.90
3190;DHT22;1606;51.946;10.558;2023-07-31T14:52:49;23.10;99.90
3190;DHT22;1606;51.946;10.558;2023-07-31T14:55:28;23.40;99.90
3190;DHT22;1606;51.946;10.558;2023-07-31T14:58:00;23.70;99.90
3190;DHT22;1606;51.946;10.558;2023-07-31T15:00:32;23.60;99.90
3190;DHT22;1606;51.946;10.558;2023-07-31T15:03:05;23.60;99.90
3190;DHT22;1606;51.946;10.558;2023-07-31T15:05:40;23.40;99.90
3190;DHT22;1606;51.946;10.558;2023-07-31T15:08:15;23.50;99.90
3190;DHT22;1606;51.946;10.558;2023-07-31T15:10:49;23.50;99.90
3190;DHT22;1606;51.946;10.558;2023-07-31T15:13:27;23.70;99.90
3190;DHT22;1606;51.946;10.558;2023-07-31T15:16:01;23.80;99.90
3190;DHT22;1606;51.946;10.558;2023-07-31T15:18:33;23.60;99.90
3190;DHT22;1606;51.946;10.558;2023-07-31T15:21:08;23.60;99.90
3190;DHT22;1606;51.946;10.558;2023-07-31T15:23:41;23.40;99.90
3190;DHT22;1606;51.946;10.558;2023-07-31T15:26:18;23.50;99.90
3190;DHT22;1606;51.946;10.558;2023-07-31T15:28:57;23.50;99.90
3190;DHT22;1606;51.946;10.558;2023-07-31T15:31:35;23.40;99.90
3190;DHT22;1606;51.946;10.558;2023-07-31T15:34:15;23.00;99.90
3190;DHT22;1606;51.946;10.558;2023-07-31T15:36:51;23.10;99.90
3190;DHT22;1606;51.946;10.558;2023-07-31T15:39:30;23.10;99.90
3190;DHT22;1606;51.946;10.558;2023-07-31T15:42:04;22.90;99.90
3190;DHT22;1606;51.946;10.558;2023-07-31T15:44:38;22.70;99.90
3190;DHT22;1606;51.946;10.558;2023-07-31T15:47:09;22.70;99.90
3190;DHT22;1606;51.946;10.558;2023-07-31T15:49:44;22.60;99.90
3190;DHT22;1606;51.946;10.558;2023-07-31T15:52:15;22.50;99.90
3190;DHT22;1606;51.946;10.558;2023-07-31T15:54:55;22.70;99.90
3190;DHT22;1606;51.946;10.558;2023-07-31T15:57:24;22.90;99.90
3190;DHT22;1606;51.946;10.558;2023-07-31T16:00:14;23.10;99.90
3190;DHT22;1606;51.946;10.558;2023-07-31T16:02:44;23.10;99.90
3190;DHT22;1606;51.946;10.558;2023-07-31T16:05:19;22.80;99.90
3190;DHT22;1606;51.946;10.558;2023-07-31T16:07:50;22.70;99.90
3190;DHT22;1606;51.946;10.558;2023-07-31T16:10:21;22.70;99.90
3190;DHT22;1606;51.946;10.558;2023-07-31T16:12:55;22.40;99.90
3190;DHT22;1606;51.946;10.558;2023-07-31T16:15:28;22.30;99.90
3190;DHT22;1606;51.946;10.558;2023-07-31T16:18:00;22.40;99.90
3190;DHT22;1606;51.946;10.558;2023-07-31T16:20:42;22.50;99.90
3190;DHT22;1606;51.946;10.558;2023-07-31T16:23:15;22.50;99.90
3190;DHT22;1606;51.946;10.558;2023-07-31T16:25:46;22.40;99.90
3190;DHT22;1606;51.946;10.558;2023-07-31T16:28:22;22.30;99.90
3190;DHT22;1606;51.946;10.558;2023-07-31T16:31:12;22.30;99.90
3190;DHT22;1606;51.946;10.558;2023-07-31T16:33:44;22.30;99.90
3190;DHT22;1606;51.946;10.558;2023-07-31T16:36:25;22.30;99.90
3190;DHT22;1606;51.946;10.558;2023-07-31T16:38:58;22.40;99.90
3190;DHT22;1606;51.946;10.558;2023-07-31T16:41:28;22.30;99.90
3190;DHT22;1606;51.946;10.558;2023-07-31T16:44:04;22.50;99.90